Time;durP1;ratioP1;P1;durP2;ratioP2;P2;SDS_P1;SDS_P2;PMS_P1;PMS_P2;Temp;Humidity;BMP_temperature;BMP_pressure;BME280_temperature;BME280_humidity;BME280_pressure;Samples;Min_cycle;Max_cycle;Signal;HPM_P1;HPM_P2
2023/08/27 00:01:49;;;;;;;3.33;1.20;;;;;;;15.98;100.00;96077.47;5098291;28;20132;-69
2023/08/27 00:04:14;;;;;;;1.23;1.10;;;;;;;15.87;100.00;96075.94;5105697;28;20015;-68
2023/08/27 00:06:39;;;;;;;3.50;1.25;;;;;;;15.83;100.00;96079.94;5109851;28;20062;-68
2023/08/27 00:09:06;;;;;;;2.40;1.20;;;;;;;15.82;100.00;96078.25;5100651;28;20388;-69
2023/08/27 00:11:32;;;;;;;1.58;1.25;;;;;;;15.88;100.00;96083.75;5106726;28;20023;-69
2023/08/27 00:13:57;;;;;;;2.08;1.23;;;;;;;15.94;100.00;96090.22;5105388;28;20023;-69
2023/08/27 00:16:22;;;;;;;3.33;1.67;;;;;;;15.99;100.00;96111.78;5098253;28;20019;-68
2023/08/27 00:18:48;;;;;;;1.73;1.50;;;;;;;16.04;100.00;96136.06;5078941;28;20024;-69
2023/08/27 00:21:13;;;;;;;1.38;1.27;;;;;;;16.04;100.00;96133.41;5099399;28;20031;-69
2023/08/27 00:23:40;;;;;;;2.97;1.17;;;;;;;16.06;100.00;96122.59;5108588;28;20522;-69
2023/08/27 00:26:05;;;;;;;2.88;1.10;;;;;;;16.07;100.00;96097.69;5110661;28;20051;-68
2023/08/27 00:28:30;;;;;;;1.25;1.15;;;;;;;16.08;100.00;96070.13;5098419;27;20424;-70
2023/08/27 00:31:03;;;;;;;1.90;1.20;;;;;;;16.07;100.00;96073.78;5111039;27;20051;-69
2023/08/27 00:33:29;;;;;;;2.22;1.20;;;;;;;16.03;100.00;96081.28;5107390;28;20016;-69
2023/08/27 00:35:55;;;;;;;2.28;1.20;;;;;;;15.98;100.00;96114.63;5110745;28;20106;-69
2023/08/27 00:38:20;;;;;;;1.48;1.10;;;;;;;15.93;100.00;96154.94;5096741;28;20075;-69
2023/08/27 00:40:46;;;;;;;2.42;1.02;;;;;;;15.96;100.00;96189.13;5097098;28;20049;-69
2023/08/27 00:43:11;;;;;;;2.97;1.40;;;;;;;16.00;100.00;96176.38;5090307;28;20030;-70
2023/08/27 00:45:38;;;;;;;2.88;1.15;;;;;;;16.05;100.00;96160.78;5111467;28;21310;-69
2023/08/27 00:48:03;;;;;;;4.25;1.30;;;;;;;16.12;100.00;96143.16;5102465;28;20032;-70
2023/08/27 00:50:30;;;;;;;1.95;1.20;;;;;;;16.12;100.00;96129.06;5096601;28;20027;-70
2023/08/27 00:52:56;;;;;;;1.67;1.13;;;;;;;16.09;100.00;96130.22;5096492;28;20020;-70
2023/08/27 00:55:22;;;;;;;1.48;1.20;;;;;;;16.03;100.00;96150.34;5097006;28;20636;-70
2023/08/27 00:57:49;;;;;;;1.10;1.00;;;;;;;15.95;100.00;96160.91;5096641;28;20028;-69
2023/08/27 01:00:15;;;;;;;4.40;1.88;;;;;;;15.87;100.00;96152.94;5099976;28;20027;-70
2023/08/27 01:02:42;;;;;;;2.78;1.38;;;;;;;15.80;100.00;96139.47;5116323;28;20031;-69
2023/08/27 01:05:08;;;;;;;1.77;1.50;;;;;;;15.74;100.00;96133.00;5108222;28;20035;-69
2023/08/27 01:07:57;;;;;;;3.60;1.30;;;;;;;15.85;100.00;96139.81;5106344;28;20028;-69
2023/08/27 01:10:30;;;;;;;2.28;1.17;;;;;;;15.89;100.00;96132.38;5106012;28;20024;-69
2023/08/27 01:13:02;;;;;;;1.13;0.70;;;;;;;15.90;100.00;96142.00;5098908;28;20011;-69
2023/08/27 01:15:28;;;;;;;2.28;1.30;;;;;;;15.85;100.00;96137.16;5100445;28;20032;-69
2023/08/27 01:17:55;;;;;;;1.15;1.05;;;;;;;15.82;100.00;96124.22;5096076;28;20392;-69
2023/08/27 01:20:22;;;;;;;1.15;1.13;;;;;;;15.80;100.00;96125.34;5099299;28;20548;-69
2023/08/27 01:22:47;;;;;;;1.67;0.95;;;;;;;15.81;100.00;96127.03;5098601;28;20492;-69
2023/08/27 01:25:18;;;;;;;1.65;1.10;;;;;;;15.81;100.00;96121.72;5106670;28;20028;-69
2023/08/27 01:28:13;;;;;;;1.52;1.20;;;;;;;15.82;100.00;96123.41;5094372;27;20061;-69
2023/08/27 01:30:55;;;;;;;1.70;1.25;;;;;;;15.81;100.00;96121.72;5114844;27;20039;-69
2023/08/27 01:33:25;;;;;;;1.58;1.08;;;;;;;15.79;100.00;96121.03;5111792;28;20015;-69
2023/08/27 01:35:51;;;;;;;1.55;1.27;;;;;;;15.77;100.00;96107.94;5099491;28;20516;-69
2023/08/27 01:38:18;;;;;;;3.42;1.27;;;;;;;15.81;100.00;96089.88;5095709;28;20135;-69
2023/08/27 01:40:43;;;;;;;2.22;1.25;;;;;;;15.87;100.00;96081.25;5098927;28;20032;-68
2023/08/27 01:43:09;;;;;;;2.35;1.40;;;;;;;15.84;100.00;96073.63;5104628;28;20032;-70
2023/08/27 01:45:34;;;;;;;2.85;1.40;;;;;;;15.81;100.00;96085.38;5080605;28;20103;-70
2023/08/27 01:48:00;;;;;;;4.07;1.70;;;;;;;15.81;100.00;96095.19;5111858;28;20054;-69
2023/08/27 01:50:25;;;;;;;4.18;1.55;;;;;;;15.78;100.00;96095.50;5109772;28;20074;-69
2023/08/27 01:52:51;;;;;;;2.70;1.90;;;;;;;15.73;100.00;96086.19;5108039;28;20031;-69
2023/08/27 01:55:16;;;;;;;2.08;1.60;;;;;;;15.71;100.00;96066.16;5100593;28;20099;-69
2023/08/27 01:57:41;;;;;;;1.55;1.30;;;;;;;15.60;100.00;96072.59;5103612;28;20027;-69
2023/08/27 02:00:09;;;;;;;3.53;1.75;;;;;;;15.60;100.00;96070.78;5081244;28;20023;-69
2023/08/27 02:02:38;;;;;;;1.80;1.25;;;;;;;15.61;100.00;96063.66;5103135;28;20481;-69
2023/08/27 02:05:06;;;;;;;1.48;1.33;;;;;;;15.71;100.00;96077.59;5102750;28;20494;-69
2023/08/27 02:07:34;;;;;;;1.30;1.20;;;;;;;15.71;100.00;96064.31;5095246;28;20031;-69
2023/08/27 02:10:00;;;;;;;1.30;1.20;;;;;;;15.76;100.00;96063.81;5100850;28;20015;-69
2023/08/27 02:12:25;;;;;;;3.45;1.30;;;;;;;15.70;100.00;96072.47;5115291;28;20075;-69
2023/08/27 02:14:52;;;;;;;1.63;1.30;;;;;;;15.57;100.00;96075.56;5100343;28;20027;-69
2023/08/27 02:17:17;;;;;;;1.27;1.00;;;;;;;15.47;100.00;96083.66;5094745;28;20027;-69
2023/08/27 02:19:42;;;;;;;1.45;1.10;;;;;;;15.47;100.00;96095.13;5094508;28;20085;-69
2023/08/27 02:22:08;;;;;;;1.83;1.20;;;;;;;15.57;100.00;96091.47;5105943;28;20107;-68
2023/08/27 02:24:33;;;;;;;2.45;1.40;;;;;;;15.59;100.00;96092.19;5094723;28;20103;-68
2023/08/27 02:26:58;;;;;;;1.48;1.20;;;;;;;15.60;100.00;96099.16;5107530;27;20028;-69
2023/08/27 02:29:24;;;;;;;2.25;1.40;;;;;;;15.61;100.00;96095.50;5106552;27;20039;-69
2023/08/27 02:31:49;;;;;;;2.00;1.42;;;;;;;15.60;100.00;96104.44;5099731;28;20053;-69
2023/08/27 02:34:15;;;;;;;2.47;1.33;;;;;;;15.63;100.00;96106.78;5103640;28;20023;-69
2023/08/27 02:36:40;;;;;;;1.52;1.30;;;;;;;15.60;100.00;96110.56;5093371;28;20103;-69
2023/08/27 02:39:05;;;;;;;3.70;1.60;;;;;;;15.63;100.00;96125.34;5097616;28;20024;-69
2023/08/27 02:41:31;;;;;;;2.17;1.40;;;;;;;15.67;100.00;96117.88;5109211;27;20074;-69
2023/08/27 02:43:56;;;;;;;2.03;1.40;;;;;;;15.69;100.00;96107.91;5100785;28;20038;-70
2023/08/27 02:46:22;;;;;;;4.65;1.60;;;;;;;15.69;100.00;96113.22;5100886;28;20084;-69
2023/08/27 02:48:47;;;;;;;1.65;1.50;;;;;;;15.66;100.00;96119.72;5100129;28;20103;-70
2023/08/27 02:51:12;;;;;;;2.60;1.67;;;;;;;15.66;100.00;96125.03;5094569;28;20287;-70
2023/08/27 02:53:38;;;;;;;2.65;1.70;;;;;;;15.67;100.00;96121.38;5106760;28;20031;-70
2023/08/27 02:56:03;;;;;;;3.17;1.50;;;;;;;15.61;100.00;96127.34;5094498;28;20437;-69
2023/08/27 02:58:28;;;;;;;2.45;1.60;;;;;;;15.60;100.00;96109.75;5099685;28;20026;-69
2023/08/27 03:00:55;;;;;;;2.42;1.60;;;;;;;15.54;100.00;96105.09;5095809;28;20024;-69
2023/08/27 03:03:20;;;;;;;2.25;1.30;;;;;;;15.55;100.00;96099.63;5093938;28;20020;-69
2023/08/27 03:05:46;;;;;;;2.83;1.50;;;;;;;15.50;100.00;96101.94;5093244;28;20097;-69
2023/08/27 03:08:11;;;;;;;1.30;1.20;;;;;;;15.48;100.00;96106.59;5085570;28;20016;-70
2023/08/27 03:10:36;;;;;;;2.08;1.33;;;;;;;15.46;100.00;96101.44;5095196;28;20110;-69
2023/08/27 03:13:02;;;;;;;1.30;1.00;;;;;;;15.45;100.00;96102.41;5093461;28;20031;-69
2023/08/27 03:15:27;;;;;;;1.92;1.17;;;;;;;15.43;100.00;96092.97;5086925;28;20019;-69
2023/08/27 03:17:53;;;;;;;3.85;1.27;;;;;;;15.42;100.00;96080.69;5092512;28;20840;-69
2023/08/27 03:20:18;;;;;;;2.80;1.33;;;;;;;15.43;100.00;96080.53;5093951;28;20024;-69
2023/08/27 03:22:44;;;;;;;1.20;1.10;;;;;;;15.50;100.00;96083.38;5093826;28;20028;-69
2023/08/27 03:25:09;;;;;;;3.35;1.35;;;;;;;15.54;100.00;96086.50;5102316;28;20030;-69
2023/08/27 03:27:35;;;;;;;1.77;1.30;;;;;;;15.57;100.00;96072.91;5105192;28;20044;-69
2023/08/27 03:30:01;;;;;;;3.08;1.33;;;;;;;15.60;100.00;96062.81;5111329;28;20067;-69
2023/08/27 03:32:26;;;;;;;1.45;1.15;;;;;;;15.62;100.00;96046.72;5098849;28;20520;-69
2023/08/27 03:34:51;;;;;;;2.65;1.30;;;;;;;15.63;100.00;96050.19;5092419;28;20107;-69
2023/08/27 03:37:17;;;;;;;1.20;1.13;;;;;;;15.63;100.00;96040.44;5092479;28;20392;-69
2023/08/27 03:39:42;;;;;;;1.63;1.45;;;;;;;15.63;100.00;96028.97;5075690;28;20510;-69
2023/08/27 03:42:08;;;;;;;1.92;1.02;;;;;;;15.59;100.00;96021.34;5106968;28;20024;-69
2023/08/27 03:44:33;;;;;;;1.20;1.10;;;;;;;15.60;100.00;96008.91;5092498;28;20020;-69
2023/08/27 03:46:58;;;;;;;1.42;1.10;;;;;;;15.60;100.00;96004.44;5093863;28;20470;-69
2023/08/27 03:49:24;;;;;;;2.70;1.20;;;;;;;15.57;100.00;95988.00;5101487;28;20028;-69
2023/08/27 03:51:50;;;;;;;1.40;1.30;;;;;;;15.60;100.00;95990.34;5097973;28;20517;-69
2023/08/27 03:54:15;;;;;;;2.75;1.48;;;;;;;15.61;100.00;95981.38;5097770;28;20407;-69
2023/08/27 03:56:41;;;;;;;1.42;1.30;;;;;;;15.50;100.00;95977.25;5113292;28;20061;-69
2023/08/27 03:59:06;;;;;;;1.30;1.15;;;;;;;15.52;100.00;95969.09;5104267;28;20057;-69
2023/08/27 04:01:31;;;;;;;3.58;1.38;;;;;;;15.54;100.00;95988.34;5102716;28;20023;-69
2023/08/27 04:03:57;;;;;;;1.98;1.20;;;;;;;15.51;100.00;96004.59;5105987;28;20026;-69
2023/08/27 04:06:22;;;;;;;3.88;1.40;;;;;;;15.52;100.00;96027.47;5112883;28;20055;-69
2023/08/27 04:08:48;;;;;;;1.42;1.20;;;;;;;15.49;100.00;96039.25;5106982;28;20240;-70
2023/08/27 04:11:15;;;;;;;3.80;1.38;;;;;;;15.45;100.00;96043.22;5109652;28;20016;-70
2023/08/27 04:13:41;;;;;;;2.67;1.55;;;;;;;15.47;100.00;96052.69;5108585;28;20045;-71
2023/08/27 04:16:09;;;;;;;2.80;1.67;;;;;;;15.49;100.00;96051.69;5099615;28;20446;-70
2023/08/27 04:18:34;;;;;;;3.83;1.40;;;;;;;15.46;100.00;96040.41;5097610;28;20507;-70
2023/08/27 04:21:01;;;;;;;2.40;1.48;;;;;;;15.51;100.00;96026.66;5104632;28;20019;-70
2023/08/27 04:23:27;;;;;;;1.58;1.25;;;;;;;15.53;100.00;95992.81;5097383;28;20028;-70
2023/08/27 04:25:53;;;;;;;1.48;1.38;;;;;;;15.52;100.00;95987.66;5097498;27;20028;-69
2023/08/27 04:28:19;;;;;;;2.85;1.40;;;;;;;15.50;100.00;96000.28;5103795;28;20026;-70
2023/08/27 04:30:48;;;;;;;2.10;1.40;;;;;;;15.50;100.00;95994.97;5102298;28;20573;-70
2023/08/27 04:33:14;;;;;;;2.03;1.10;;;;;;;15.47;100.00;95967.78;5098001;28;20024;-69
2023/08/27 04:35:39;;;;;;;6.60;1.20;;;;;;;15.51;100.00;95955.03;5096848;28;20028;-69
2023/08/27 04:38:05;;;;;;;2.95;1.30;;;;;;;15.48;100.00;95934.13;5097158;28;20511;-70
2023/08/27 04:40:31;;;;;;;1.30;1.20;;;;;;;15.49;100.00;95942.91;5097356;28;20032;-69
2023/08/27 04:42:59;;;;;;;0.95;0.95;;;;;;;15.43;100.00;95953.19;5101792;28;20031;-69
2023/08/27 04:45:25;;;;;;;2.13;1.48;;;;;;;15.43;100.00;95958.50;5105554;28;20027;-69
2023/08/27 04:47:50;;;;;;;3.05;1.70;;;;;;;15.41;100.00;95957.00;5095384;28;20020;-69
2023/08/27 04:50:16;;;;;;;2.05;1.38;;;;;;;15.44;100.00;95965.47;5102088;28;20024;-69
2023/08/27 04:52:41;;;;;;;1.50;1.40;;;;;;;15.39;100.00;95967.78;5096991;28;20028;-69
2023/08/27 04:55:07;;;;;;;1.45;1.30;;;;;;;15.36;100.00;95964.63;5105821;28;20016;-70
2023/08/27 04:57:37;;;;;;;1.20;1.10;;;;;;;15.32;100.00;95959.66;5096679;28;20024;-69
2023/08/27 05:00:07;;;;;;;1.40;1.30;;;;;;;15.33;100.00;95939.25;5108487;28;20114;-70
2023/08/27 05:02:33;;;;;;;1.92;1.42;;;;;;;15.36;100.00;95936.25;5096412;28;20020;-70
2023/08/27 05:04:59;;;;;;;1.42;0.95;;;;;;;15.37;100.00;95930.00;5094671;28;20035;-70
2023/08/27 05:07:25;;;;;;;1.40;1.30;;;;;;;15.38;100.00;95931.66;5097566;28;20020;-70
2023/08/27 05:09:50;;;;;;;1.60;1.38;;;;;;;15.42;100.00;95921.50;5096263;28;20016;-70
2023/08/27 05:12:15;;;;;;;1.77;1.40;;;;;;;15.38;100.00;95904.28;5099934;28;20027;-70
2023/08/27 05:14:41;;;;;;;3.50;1.40;;;;;;;15.41;100.00;95888.03;5099137;28;20661;-70
2023/08/27 05:17:06;;;;;;;1.85;1.20;;;;;;;15.44;100.00;95885.03;5101252;28;20094;-70
2023/08/27 05:19:32;;;;;;;1.20;1.10;;;;;;;15.41;100.00;95866.81;5113332;28;20509;-70
2023/08/27 05:21:57;;;;;;;1.23;1.10;;;;;;;15.37;100.00;95870.78;5115963;28;20030;-70
2023/08/27 05:24:22;;;;;;;2.35;1.25;;;;;;;15.40;100.00;95867.78;5113793;28;20061;-69
2023/08/27 05:26:48;;;;;;;2.47;1.30;;;;;;;15.36;100.00;95863.81;5097892;28;20042;-69
2023/08/27 05:29:13;;;;;;;1.83;1.00;;;;;;;15.31;100.00;95890.84;5104696;27;20053;-69
2023/08/27 05:31:39;;;;;;;1.40;1.30;;;;;;;15.31;100.00;95882.88;5094543;28;20094;-69
2023/08/27 05:34:04;;;;;;;1.27;1.20;;;;;;;15.35;100.00;95878.91;5108260;28;20027;-70
2023/08/27 05:36:29;;;;;;;1.52;1.42;;;;;;;15.42;100.00;95879.91;5096084;28;20024;-69
2023/08/27 05:38:55;;;;;;;1.45;1.35;;;;;;;15.32;100.00;95874.78;5096152;28;20027;-68
2023/08/27 05:41:20;;;;;;;2.00;1.30;;;;;;;15.32;100.00;95881.88;5111537;27;20023;-69
2023/08/27 05:43:47;;;;;;;1.25;1.25;;;;;;;15.31;100.00;95877.59;5100838;28;20038;-69
2023/08/27 05:46:13;;;;;;;1.17;1.17;;;;;;;15.28;100.00;95869.97;5105543;28;20055;-69
2023/08/27 05:48:38;;;;;;;2.63;1.30;;;;;;;15.28;100.00;95881.41;5095387;28;20059;-69
2023/08/27 05:51:04;;;;;;;2.25;1.30;;;;;;;15.32;100.00;95896.00;5101609;28;20027;-69
2023/08/27 05:53:29;;;;;;;1.92;1.38;;;;;;;15.37;100.00;95907.94;5100827;28;20015;-69
2023/08/27 05:55:54;;;;;;;1.52;1.40;;;;;;;15.38;100.00;95914.88;5099927;28;20031;-70
2023/08/27 05:58:20;;;;;;;1.10;1.10;;;;;;;15.45;100.00;95927.31;5097833;28;20027;-69
2023/08/27 06:00:45;;;;;;;1.08;1.02;;;;;;;15.43;100.00;95915.22;5095262;28;20397;-70
2023/08/27 06:03:10;;;;;;;1.25;1.25;;;;;;;15.37;100.00;95937.09;5107136;28;20017;-69
2023/08/27 06:05:36;;;;;;;0.98;0.98;;;;;;;15.37;100.00;95939.75;5094864;28;20028;-69
2023/08/27 06:08:03;;;;;;;1.10;1.00;;;;;;;15.35;100.00;95939.91;5106454;28;20853;-69
2023/08/27 06:10:29;;;;;;;2.88;1.20;;;;;;;15.37;100.00;95947.72;5100745;28;20024;-69
2023/08/27 06:12:56;;;;;;;1.23;1.20;;;;;;;15.39;100.00;95949.22;5108603;28;20034;-69
2023/08/27 06:15:22;;;;;;;4.90;1.30;;;;;;;15.37;100.00;95940.59;5094992;28;20032;-70
2023/08/27 06:17:47;;;;;;;2.42;1.20;;;;;;;15.35;100.00;95944.41;5095233;28;20028;-69
2023/08/27 06:20:12;;;;;;;1.15;1.00;;;;;;;15.35;100.00;95947.88;5100002;28;20016;-69
2023/08/27 06:22:38;;;;;;;1.70;1.00;;;;;;;15.40;100.00;95950.88;5113851;28;20073;-69
2023/08/27 06:25:04;;;;;;;1.10;1.10;;;;;;;15.38;100.00;95941.41;5110617;28;20596;-69
2023/08/27 06:27:29;;;;;;;1.40;1.30;;;;;;;15.35;100.00;95950.53;5108762;28;20430;-69
2023/08/27 06:29:54;;;;;;;1.27;1.27;;;;;;;15.36;100.00;95959.31;5105004;27;20047;-69
2023/08/27 06:32:20;;;;;;;1.33;1.15;;;;;;;15.40;100.00;95971.25;5094901;28;20065;-69
2023/08/27 06:34:45;;;;;;;1.40;1.30;;;;;;;15.45;100.00;95967.13;5100829;28;20027;-69
2023/08/27 06:37:11;;;;;;;4.30;1.40;;;;;;;15.51;100.00;95973.59;5106379;27;20021;-69
2023/08/27 06:39:36;;;;;;;2.35;1.42;;;;;;;15.53;100.00;95971.59;5112423;28;20023;-69
2023/08/27 06:42:02;;;;;;;1.52;1.35;;;;;;;15.49;100.00;95985.34;5096728;27;20111;-69
2023/08/27 06:44:27;;;;;;;1.25;1.15;;;;;;;15.49;100.00;95996.81;5101796;28;20027;-69
2023/08/27 06:46:53;;;;;;;1.33;1.10;;;;;;;15.47;100.00;95996.97;5100811;28;20034;-69
2023/08/27 06:49:18;;;;;;;1.40;1.30;;;;;;;15.47;100.00;95996.97;5107819;28;20024;-69
2023/08/27 06:51:44;;;;;;;1.23;1.13;;;;;;;15.49;100.00;96004.78;5095221;28;20067;-69
2023/08/27 06:54:09;;;;;;;2.22;1.48;;;;;;;15.52;100.00;96014.22;5100293;28;20030;-69
2023/08/27 06:56:35;;;;;;;1.30;1.20;;;;;;;15.49;100.00;96014.53;5102021;28;20106;-69
2023/08/27 06:59:00;;;;;;;1.85;1.30;;;;;;;15.46;100.00;96013.88;5095479;28;20028;-69
2023/08/27 07:01:27;;;;;;;3.25;1.60;;;;;;;15.46;100.00;96024.50;5096547;28;20035;-70
2023/08/27 07:03:53;;;;;;;1.50;1.40;;;;;;;15.49;100.00;96017.19;5094512;28;20020;-70
2023/08/27 07:06:19;;;;;;;1.33;1.23;;;;;;;15.44;100.00;96015.88;5094568;28;20020;-70
2023/08/27 07:08:45;;;;;;;2.85;1.50;;;;;;;15.43;100.00;96019.50;5094718;28;20028;-70
2023/08/27 07:11:11;;;;;;;2.97;1.35;;;;;;;15.42;100.00;96011.72;5093910;28;20012;-70
2023/08/27 07:13:37;;;;;;;1.40;1.30;;;;;;;15.39;100.00;96015.53;5094231;28;20020;-71
2023/08/27 07:16:03;;;;;;;1.60;1.50;;;;;;;15.42;100.00;96014.38;5094646;28;20027;-70
2023/08/27 07:18:29;;;;;;;4.32;1.60;;;;;;;15.41;100.00;96016.19;5102555;28;20028;-70
2023/08/27 07:20:54;;;;;;;1.60;1.50;;;;;;;15.39;100.00;96012.03;5095036;28;20062;-70
2023/08/27 07:23:20;;;;;;;2.38;2.00;;;;;;;15.42;100.00;96007.25;5107173;28;20044;-70
2023/08/27 07:25:45;;;;;;;1.83;1.73;;;;;;;15.38;100.00;95999.78;5099830;28;20792;-70
2023/08/27 07:28:11;;;;;;;3.03;2.00;;;;;;;15.39;100.00;95996.13;5097141;28;20115;-70
2023/08/27 07:30:36;;;;;;;2.47;2.28;;;;;;;15.37;100.00;95998.97;5105423;28;20048;-70
2023/08/27 07:33:02;;;;;;;2.50;2.22;;;;;;;15.37;100.00;95998.13;5110828;28;20028;-70
2023/08/27 07:35:29;;;;;;;2.10;1.90;;;;;;;15.43;100.00;95997.44;5100054;28;20028;-70
2023/08/27 07:37:55;;;;;;;3.85;1.88;;;;;;;15.41;100.00;95999.44;5093846;28;20107;-70
2023/08/27 07:40:20;;;;;;;2.20;2.00;;;;;;;15.34;100.00;95988.66;5093748;28;20078;-70
2023/08/27 07:42:46;;;;;;;2.72;1.88;;;;;;;15.30;100.00;95997.94;5104869;28;20020;-71
2023/08/27 07:45:11;;;;;;;2.05;1.95;;;;;;;15.35;100.00;95986.84;5094453;28;20119;-71
2023/08/27 07:47:37;;;;;;;1.90;1.80;;;;;;;15.35;100.00;95997.44;5097656;28;20028;-70
2023/08/27 07:50:03;;;;;;;1.95;1.85;;;;;;;15.38;100.00;95989.16;5092188;28;20028;-70
2023/08/27 07:52:28;;;;;;;2.20;2.03;;;;;;;15.40;100.00;95987.16;5093417;28;20027;-70
2023/08/27 07:54:54;;;;;;;1.95;1.77;;;;;;;15.43;100.00;95977.06;5102268;28;20012;-69
2023/08/27 07:57:19;;;;;;;1.55;1.55;;;;;;;15.45;100.00;95980.38;5111581;28;20034;-70
2023/08/27 07:59:45;;;;;;;3.15;1.80;;;;;;;15.47;100.00;95985.50;5096611;28;20107;-70
2023/08/27 08:02:11;;;;;;;2.28;1.98;;;;;;;15.46;100.00;95979.38;5093760;28;20107;-70
2023/08/27 08:04:36;;;;;;;1.70;1.60;;;;;;;15.47;100.00;95973.09;5104636;28;20081;-70
2023/08/27 08:07:02;;;;;;;2.20;1.80;;;;;;;15.50;100.00;95968.44;5099853;28;20830;-70
2023/08/27 08:09:28;;;;;;;2.00;1.90;;;;;;;15.51;100.00;95967.44;5099947;28;20077;-69
2023/08/27 08:11:53;;;;;;;2.03;1.92;;;;;;;15.54;100.00;95962.63;5091943;28;20028;-69
2023/08/27 08:14:18;;;;;;;2.25;1.80;;;;;;;15.59;100.00;95956.84;5093638;28;20008;-69
2023/08/27 08:16:44;;;;;;;2.38;2.10;;;;;;;15.60;100.00;95953.19;5093608;28;20024;-70
2023/08/27 08:19:10;;;;;;;2.03;1.83;;;;;;;15.62;100.00;95953.84;5092213;28;20016;-69
2023/08/27 08:21:36;;;;;;;3.10;2.00;;;;;;;15.59;100.00;95931.13;5091859;28;20051;-70
2023/08/27 08:24:01;;;;;;;2.03;1.70;;;;;;;15.58;100.00;95932.13;5102873;28;20506;-69
2023/08/27 08:26:27;;;;;;;3.13;1.60;;;;;;;15.60;100.00;95926.66;5102833;28;20095;-70
2023/08/27 08:28:52;;;;;;;2.03;1.92;;;;;;;15.64;100.00;95924.47;5106310;28;20557;-70
2023/08/27 08:31:17;;;;;;;2.13;1.50;;;;;;;15.69;100.00;95916.84;5108078;28;20423;-69
2023/08/27 08:33:43;;;;;;;1.30;1.20;;;;;;;15.73;100.00;95905.72;5092050;28;20028;-69
2023/08/27 08:36:08;;;;;;;1.17;1.17;;;;;;;15.74;100.00;95899.41;5100739;28;20027;-69
2023/08/27 08:38:34;;;;;;;1.63;1.52;;;;;;;15.78;100.00;95893.75;5103535;28;20028;-69
2023/08/27 08:41:01;;;;;;;1.67;1.58;;;;;;;15.75;100.00;95890.44;5115787;27;20059;-68
2023/08/27 08:43:32;;;;;;;1.73;1.33;;;;;;;15.76;100.00;95889.44;5099817;27;20077;-69
2023/08/27 08:46:08;;;;;;;1.45;1.35;;;;;;;15.75;100.00;95892.28;5103262;28;20032;-69
2023/08/27 08:48:39;;;;;;;1.40;1.30;;;;;;;15.79;100.00;95908.69;5099328;28;20060;-70
2023/08/27 08:51:06;;;;;;;1.30;1.20;;;;;;;15.81;100.00;95926.13;5101288;28;20035;-70
2023/08/27 08:53:35;;;;;;;1.40;1.30;;;;;;;15.84;100.00;95909.03;5108648;28;20019;-70
2023/08/27 08:56:06;;;;;;;2.17;1.30;;;;;;;15.80;100.00;95929.75;5106659;28;20034;-73
2023/08/27 08:58:35;;;;;;;1.38;1.27;;;;;;;15.82;100.00;95942.88;5096980;28;20020;-70
2023/08/27 09:01:02;;;;;;;0.93;0.93;;;;;;;15.89;100.00;95946.53;5095004;28;20500;-70
2023/08/27 09:03:30;;;;;;;1.15;1.15;;;;;;;15.92;100.00;95948.03;5097102;28;20519;-70
2023/08/27 09:05:56;;;;;;;1.75;1.40;;;;;;;15.93;100.00;95953.16;5100737;28;20034;-70
2023/08/27 09:08:22;;;;;;;1.50;1.40;;;;;;;15.95;100.00;95953.00;5103507;28;20637;-71
2023/08/27 09:10:49;;;;;;;1.15;1.10;;;;;;;16.07;100.00;95946.31;5102042;28;20102;-70
2023/08/27 09:13:21;;;;;;;1.10;1.10;;;;;;;16.11;100.00;95947.63;5096193;28;20070;-71
2023/08/27 09:15:50;;;;;;;1.50;1.40;;;;;;;15.92;100.00;95938.22;5109277;28;20053;-70
2023/08/27 09:18:16;;;;;;;2.10;1.95;;;;;;;15.90;100.00;95935.72;5105993;28;20057;-71
2023/08/27 09:20:43;;;;;;;2.08;1.40;;;;;;;15.90;100.00;95932.28;5098696;27;20028;-70
2023/08/27 09:23:09;;;;;;;6.68;1.65;;;;;;;15.92;100.00;95932.13;5105145;28;20396;-70
2023/08/27 09:25:42;;;;;;;1.88;1.63;;;;;;;15.94;100.00;95927.47;5102651;28;20035;-71
2023/08/27 09:28:07;;;;;;;1.58;1.45;;;;;;;15.88;100.00;95918.31;5103222;28;20096;-70
2023/08/27 09:30:33;;;;;;;1.50;1.38;;;;;;;15.87;100.00;95900.72;5095139;28;20453;-70
2023/08/27 09:32:59;;;;;;;2.17;1.77;;;;;;;15.96;100.00;95889.09;5095159;28;20040;-70
2023/08/27 09:35:36;;;;;;;1.70;1.58;;;;;;;16.02;100.00;95884.94;5095514;28;20028;-70
2023/08/27 09:38:02;;;;;;;1.60;1.50;;;;;;;16.08;100.00;95878.13;5096703;28;20023;-69
2023/08/27 09:40:28;;;;;;;3.47;1.40;;;;;;;16.09;100.00;95874.47;5095668;28;20024;-71
2023/08/27 09:43:05;;;;;;;1.75;1.65;;;;;;;16.08;100.00;95860.34;5095854;27;20035;-70
2023/08/27 09:45:32;;;;;;;1.58;1.45;;;;;;;16.14;100.00;95851.72;5098086;28;20046;-70
2023/08/27 09:47:58;;;;;;;1.95;1.73;;;;;;;16.22;100.00;95847.34;5094052;28;20523;-70
2023/08/27 09:50:24;;;;;;;3.70;1.70;;;;;;;16.39;100.00;95845.44;5099381;28;20035;-70
2023/08/27 09:52:49;;;;;;;2.38;1.42;;;;;;;16.50;100.00;95845.03;5100130;28;20026;-70
2023/08/27 09:55:18;;;;;;;1.35;1.27;;;;;;;16.58;100.00;95855.63;5100320;28;20263;-70
2023/08/27 09:57:49;;;;;;;1.60;1.50;;;;;;;16.67;100.00;95852.91;5095867;28;20117;-70
2023/08/27 10:00:16;;;;;;;1.92;1.40;;;;;;;16.72;100.00;95853.22;5115300;28;20028;-69
2023/08/27 10:02:43;;;;;;;1.35;1.30;;;;;;;16.94;100.00;95861.38;5098894;28;20048;-70
2023/08/27 10:05:09;;;;;;;1.60;1.50;;;;;;;17.08;100.00;95873.09;5105005;28;20488;-69
2023/08/27 10:07:34;;;;;;;1.90;1.40;;;;;;;17.26;100.00;95875.44;5111402;28;20064;-70
2023/08/27 10:10:03;;;;;;;1.75;1.65;;;;;;;17.12;100.00;95887.69;5094892;28;20049;-70
2023/08/27 10:12:29;;;;;;;1.95;1.40;;;;;;;17.03;100.00;95873.63;5107039;28;20081;-70
2023/08/27 10:14:55;;;;;;;3.13;1.40;;;;;;;17.06;100.00;95899.03;5094596;28;20046;-69
2023/08/27 10:17:22;;;;;;;1.58;1.48;;;;;;;16.92;100.00;95911.25;5099093;28;20023;-70
2023/08/27 10:19:48;;;;;;;3.28;1.67;;;;;;;16.82;100.00;95914.94;5099660;28;20092;-69
2023/08/27 10:22:15;;;;;;;3.03;1.30;;;;;;;16.72;100.00;95917.81;5101957;28;20181;-72
2023/08/27 10:24:41;;;;;;;2.90;1.38;;;;;;;16.59;100.00;95923.72;5098153;28;20016;-70
2023/08/27 10:27:07;;;;;;;1.95;1.50;;;;;;;16.67;100.00;95932.63;5099732;28;20102;-69
2023/08/27 10:29:34;;;;;;;1.50;1.38;;;;;;;16.74;100.00;95952.22;5108179;27;20087;-71
2023/08/27 10:31:59;;;;;;;25.10;22.50;;;;;;;16.79;100.00;95959.66;5101571;28;20087;-73
2023/08/27 10:34:28;;;;;;;9.18;8.02;;;;;;;16.80;100.00;95951.50;5094038;28;20066;-73
2023/08/27 10:36:56;;;;;;;8.18;6.20;;;;;;;16.83;100.00;95951.16;5097223;28;20032;-73
2023/08/27 10:39:26;;;;;;;3.25;2.63;;;;;;;16.88;100.00;95954.13;5097588;28;20023;-71
2023/08/27 10:41:52;;;;;;;1.60;1.50;;;;;;;16.94;100.00;95957.91;5106435;27;20032;-72
2023/08/27 10:44:22;;;;;;;1.60;1.50;;;;;;;17.07;100.00;95937.94;5093722;28;20056;-72
2023/08/27 10:47:07;;;;;;;1.40;1.30;;;;;;;17.29;100.00;95942.44;5094255;28;20102;-72
2023/08/27 10:49:40;;;;;;;1.63;1.53;;;;;;;17.42;100.00;95957.78;5094910;28;20034;-71
2023/08/27 10:52:18;;;;;;;2.53;1.45;;;;;;;17.65;100.00;95954.28;5102937;28;20109;-71
2023/08/27 10:54:48;;;;;;;1.80;1.67;;;;;;;17.78;100.00;95950.16;5096181;28;20023;-73
2023/08/27 10:57:19;;;;;;;2.22;1.98;;;;;;;17.87;100.00;95951.75;5104088;28;20027;-73
2023/08/27 10:59:45;;;;;;;10.15;9.15;;;;;;;17.91;100.00;95953.03;5093500;28;20690;-71
2023/08/27 11:02:11;;;;;;;2.67;2.47;;;;;;;17.99;100.00;95936.16;5093854;28;20036;-72
2023/08/27 11:04:38;;;;;;;2.85;2.75;;;;;;;18.01;100.00;95934.13;5096417;28;20037;-72
2023/08/27 11:07:27;;;;;;;3.58;3.00;;;;;;;18.08;100.00;95944.91;5103824;28;20113;-72
2023/08/27 11:09:55;;;;;;;2.80;2.60;;;;;;;18.04;100.00;95945.28;5099713;28;20030;-71
2023/08/27 11:12:28;;;;;;;1.73;1.63;;;;;;;18.07;100.00;95953.91;5099879;28;20047;-68
2023/08/27 11:14:54;;;;;;;1.20;1.15;;;;;;;18.07;100.00;95957.38;5099663;28;20031;-69
2023/08/27 11:17:28;;;;;;;2.17;1.27;;;;;;;18.03;100.00;95962.28;5107836;28;20070;-70
2023/08/27 11:19:54;;;;;;;1.17;1.17;;;;;;;17.97;100.00;95957.63;5098545;28;20028;-69
2023/08/27 11:22:21;;;;;;;1.30;1.20;;;;;;;17.87;100.00;95955.22;5095645;28;20035;-70